createdAt,value
2018-05-26T00:00:39.659Z,92.80
2018-05-26T00:03:08.741Z,93.00
2018-05-26T00:05:37.802Z,93.20
2018-05-26T00:08:06.967Z,93.40
2018-05-26T00:10:36.782Z,93.10
2018-05-26T00:13:06.620Z,93.00
2018-05-26T00:15:35.663Z,93.00
2018-05-26T00:18:04.740Z,93.00
2018-05-26T00:20:33.864Z,92.70
2018-05-26T00:23:02.928Z,92.60
2018-05-26T00:25:32.022Z,92.80
2018-05-26T00:28:01.071Z,92.70
2018-05-26T00:30:30.912Z,92.60
2018-05-26T00:32:59.962Z,92.50
2018-05-26T00:35:29.041Z,92.50
2018-05-26T00:37:58.105Z,92.30
2018-05-26T00:40:27.189Z,92.30
2018-05-26T00:42:56.236Z,92.40
2018-05-26T00:45:25.328Z,92.60
2018-05-26T00:47:54.371Z,92.60
2018-05-26T00:50:23.448Z,92.50
2018-05-26T00:52:58.117Z,92.50
2018-05-26T00:55:27.208Z,92.40
2018-05-26T00:57:56.279Z,92.30
2018-05-26T01:00:25.324Z,92.20
2018-05-26T01:02:54.419Z,92.30
2018-05-26T01:05:23.481Z,92.30
2018-05-26T01:07:52.553Z,92.30
2018-05-26T01:10:22.493Z,92.40
2018-05-26T01:12:51.549Z,92.50
2018-05-26T01:15:20.631Z,92.60
2018-05-26T01:17:50.511Z,92.50
2018-05-26T01:20:19.625Z,92.40
2018-05-26T01:22:48.651Z,92.40
2018-05-26T01:25:17.720Z,92.30
2018-05-26T01:27:46.794Z,92.20
2018-05-26T01:30:15.880Z,92.20
2018-05-26T01:32:44.928Z,92.20
2018-05-26T01:35:14.772Z,92.10
2018-05-26T01:37:43.820Z,92.10
2018-05-26T01:40:13.672Z,91.80
2018-05-26T01:42:42.747Z,91.80
2018-05-26T01:45:12.572Z,92.00
2018-05-26T01:47:41.661Z,92.00
2018-05-26T01:50:10.732Z,92.10
2018-05-26T01:52:40.557Z,92.50
2018-05-26T01:55:09.629Z,92.50
2018-05-26T01:57:39.503Z,92.90
2018-05-26T02:00:08.545Z,92.60
2018-05-26T02:02:38.403Z,92.50
2018-05-26T02:05:07.484Z,92.50
2018-05-26T02:07:36.539Z,92.70
2018-05-26T02:10:05.624Z,92.80
2018-05-26T02:12:34.687Z,92.80
2018-05-26T02:15:03.754Z,92.80
2018-05-26T02:17:32.799Z,92.60
2018-05-26T02:20:01.899Z,92.70
2018-05-26T02:22:30.993Z,92.80
2018-05-26T02:25:00.106Z,92.80
2018-05-26T02:27:29.943Z,92.50
2018-05-26T02:29:59.027Z,92.50
2018-05-26T02:32:28.108Z,92.50
2018-05-26T02:34:57.950Z,92.30
2018-05-26T02:37:27.022Z,92.40
2018-05-26T02:39:56.844Z,92.50
2018-05-26T02:42:26.701Z,92.50
2018-05-26T02:44:55.755Z,92.50
2018-05-26T02:47:24.849Z,92.50
2018-05-26T02:49:53.912Z,92.60
2018-05-26T02:52:23.010Z,92.50
2018-05-26T02:54:52.101Z,92.50
2018-05-26T02:57:21.155Z,92.80
2018-05-26T02:59:50.224Z,92.40
2018-05-26T03:02:19.310Z,92.60
2018-05-26T03:04:55.409Z,93.00
2018-05-26T03:07:29.956Z,93.00
2018-05-26T03:10:04.562Z,93.20
2018-05-26T03:12:39.224Z,93.50
2018-05-26T03:15:07.614Z,93.90
2018-05-26T03:17:42.847Z,94.20
2018-05-26T03:20:12.670Z,94.40
2018-05-26T03:22:42.520Z,94.40
2018-05-26T03:25:11.592Z,94.40
2018-05-26T03:27:40.665Z,94.50
2018-05-26T03:30:10.488Z,94.80
2018-05-26T03:32:40.323Z,94.90
2018-05-26T03:35:09.376Z,94.90
2018-05-26T03:37:38.455Z,94.90
2018-05-26T03:40:07.538Z,94.80
2018-05-26T03:42:36.593Z,94.70
2018-05-26T03:45:05.684Z,94.70
2018-05-26T03:47:34.724Z,94.50
2018-05-26T03:50:03.773Z,94.40
2018-05-26T03:52:32.855Z,94.30
2018-05-26T03:55:38.322Z,94.20
2018-05-26T03:58:25.211Z,94.20
2018-05-26T04:00:55.056Z,93.90
2018-05-26T04:03:24.095Z,93.90
2018-05-26T04:05:53.210Z,93.90
2018-05-26T04:08:22.262Z,93.80
2018-05-26T04:10:51.323Z,93.60
2018-05-26T04:13:20.410Z,93.60
2018-05-26T04:15:50.234Z,93.40
2018-05-26T04:18:19.309Z,93.40
2018-05-26T04:20:49.145Z,93.00
2018-05-26T04:23:18.243Z,93.00
2018-05-26T04:25:47.304Z,92.70
2018-05-26T04:28:17.214Z,92.30
2018-05-26T04:30:46.205Z,92.30
2018-05-26T04:33:16.048Z,92.50
2018-05-26T04:35:45.105Z,92.50
2018-05-26T04:38:14.204Z,92.30
2018-05-26T04:40:43.243Z,92.20
2018-05-26T04:43:12.340Z,92.30
2018-05-26T04:45:41.406Z,92.30
2018-05-26T04:48:11.249Z,92.10
2018-05-26T04:50:40.327Z,92.10
2018-05-26T04:53:09.389Z,92.10
2018-05-26T04:55:38.474Z,91.90
2018-05-26T04:58:07.528Z,92.00
2018-05-26T05:00:36.595Z,91.70
2018-05-26T05:03:05.732Z,91.70
2018-05-26T05:05:34.818Z,91.70
2018-05-26T05:08:04.621Z,91.00
2018-05-26T05:10:33.665Z,91.00
2018-05-26T05:13:02.742Z,91.10
2018-05-26T05:15:31.800Z,91.30
2018-05-26T05:18:00.898Z,90.90
2018-05-26T05:20:29.977Z,91.40
2018-05-26T05:22:59.813Z,91.20
2018-05-26T05:25:28.880Z,91.20
2018-05-26T05:27:57.978Z,91.30
2018-05-26T05:30:27.792Z,90.90
2018-05-26T05:32:56.868Z,90.90
2018-05-26T05:35:26.702Z,91.00
2018-05-26T05:37:55.813Z,91.00
2018-05-26T05:40:24.862Z,91.30
2018-05-26T05:42:53.916Z,91.30
2018-05-26T05:45:22.994Z,90.90
2018-05-26T05:47:52.051Z,90.80
2018-05-26T05:50:21.903Z,91.30
2018-05-26T05:52:50.956Z,90.90
2018-05-26T05:55:20.807Z,90.90
2018-05-26T05:57:49.860Z,90.90
2018-05-26T06:00:19.705Z,91.00
2018-05-26T06:02:48.764Z,91.00
2018-05-26T06:05:17.854Z,91.30
2018-05-26T06:07:46.955Z,91.60
2018-05-26T06:10:16.059Z,91.60
2018-05-26T06:12:45.979Z,91.50
2018-05-26T06:15:15.935Z,91.60
2018-05-26T06:17:44.958Z,91.60
2018-05-26T06:20:14.084Z,91.60
2018-05-26T06:22:43.956Z,92.00
2018-05-26T06:25:13.025Z,91.70
2018-05-26T06:27:42.105Z,91.50
2018-05-26T06:30:11.180Z,91.40
2018-05-26T06:32:40.998Z,91.00
2018-05-26T06:35:10.840Z,90.80
2018-05-26T06:37:40.199Z,90.80
2018-05-26T06:40:09.887Z,90.70
2018-05-26T06:42:38.927Z,90.50
2018-05-26T06:45:08.029Z,90.60
2018-05-26T06:47:37.098Z,90.60
2018-05-26T06:50:06.955Z,89.70
2018-05-26T06:52:36.005Z,89.70
2018-05-26T06:55:05.812Z,89.10
2018-05-26T06:57:35.675Z,89.40
2018-05-26T07:00:04.761Z,89.40
2018-05-26T07:02:33.797Z,87.60
2018-05-26T07:05:02.943Z,86.80
2018-05-26T07:07:32.016Z,86.80
2018-05-26T07:10:01.916Z,85.10
2018-05-26T07:12:31.006Z,85.00
2018-05-26T07:15:00.042Z,85.40
2018-05-26T07:17:29.199Z,84.80
2018-05-26T07:19:58.260Z,84.70
2018-05-26T07:22:27.308Z,82.40
2018-05-26T07:24:57.188Z,81.90
2018-05-26T07:27:26.237Z,81.90
2018-05-26T07:29:55.284Z,81.20
2018-05-26T07:32:24.355Z,80.60
2018-05-26T07:34:53.401Z,81.10
2018-05-26T07:37:23.247Z,79.70
2018-05-26T07:39:52.295Z,79.60
2018-05-26T07:42:22.148Z,76.90
2018-05-26T07:44:51.182Z,76.80
2018-05-26T07:47:20.947Z,76.20
2018-05-26T07:49:50.752Z,76.00
2018-05-26T07:52:19.857Z,76.00
2018-05-26T07:54:48.932Z,75.00
2018-05-26T07:57:18.036Z,74.70
2018-05-26T07:59:47.125Z,73.50
2018-05-26T08:02:16.157Z,72.20
2018-05-26T08:04:45.236Z,72.00
2018-05-26T08:07:14.288Z,73.80
2018-05-26T08:09:44.196Z,73.70
2018-05-26T08:12:13.236Z,73.60
2018-05-26T08:14:42.328Z,74.20
2018-05-26T08:17:11.456Z,73.00
2018-05-26T08:19:40.443Z,72.00
2018-05-26T08:22:09.488Z,69.20
2018-05-26T08:24:38.562Z,68.70
2018-05-26T08:27:07.631Z,68.60
2018-05-26T08:29:37.550Z,67.70
2018-05-26T08:32:07.505Z,65.80
2018-05-26T08:34:37.348Z,66.20
2018-05-26T08:37:07.185Z,66.20
2018-05-26T08:39:36.334Z,61.80
2018-05-26T08:42:05.425Z,62.90
2018-05-26T08:44:34.504Z,64.10
2018-05-26T08:47:04.348Z,63.40
2018-05-26T08:49:33.440Z,63.30
2018-05-26T08:52:02.515Z,62.90
2018-05-26T08:54:32.385Z,61.60
2018-05-26T08:57:01.434Z,61.50
2018-05-26T08:59:30.496Z,58.80
2018-05-26T09:01:59.546Z,58.20
2018-05-26T09:04:28.620Z,58.90
2018-05-26T09:06:57.740Z,60.70
2018-05-26T09:09:26.838Z,60.60
2018-05-26T09:11:55.922Z,59.80
2018-05-26T09:14:24.954Z,60.10
2018-05-26T09:16:53.996Z,60.30
2018-05-26T09:19:23.057Z,62.30
2018-05-26T09:21:52.115Z,61.70
2018-05-26T09:24:21.185Z,61.90
2018-05-26T09:26:50.223Z,60.50
2018-05-26T09:29:19.347Z,62.30
2018-05-26T09:31:49.144Z,57.70
2018-05-26T09:34:18.224Z,57.70
2018-05-26T09:36:47.251Z,59.50
2018-05-26T09:39:17.096Z,57.30
2018-05-26T09:41:46.136Z,57.30
2018-05-26T09:44:15.224Z,55.90
2018-05-26T09:46:44.275Z,56.50
2018-05-26T09:49:13.345Z,55.80
2018-05-26T09:51:43.152Z,54.50
2018-05-26T09:54:12.996Z,54.30
2018-05-26T09:56:42.034Z,54.20
2018-05-26T09:59:11.096Z,53.90
2018-05-26T10:01:40.133Z,49.10
2018-05-26T10:04:09.196Z,50.70
2018-05-26T10:06:38.341Z,51.30
2018-05-26T10:09:07.386Z,51.00
2018-05-26T10:11:36.434Z,52.00
2018-05-26T10:14:06.293Z,49.70
2018-05-26T10:16:35.313Z,49.70
2018-05-26T10:19:04.406Z,51.90
2018-05-26T10:21:33.448Z,50.00
2018-05-26T10:24:02.497Z,53.40
2018-05-26T10:26:31.581Z,51.60
2018-05-26T10:29:00.664Z,49.30
2018-05-26T10:31:29.802Z,47.70
2018-05-26T10:33:59.624Z,48.80
2018-05-26T10:36:28.676Z,48.80
2018-05-26T10:38:57.717Z,47.40
2018-05-26T10:41:26.784Z,49.90
2018-05-26T10:43:56.609Z,46.20
2018-05-26T10:46:29.851Z,45.50
2018-05-26T10:48:58.896Z,45.40
2018-05-26T10:51:28.739Z,48.10
2018-05-26T10:53:57.771Z,48.00
2018-05-26T10:56:26.860Z,46.70
2018-05-26T10:58:55.884Z,46.00
2018-05-26T11:01:25.801Z,44.90
2018-05-26T11:03:54.794Z,44.80
2018-05-26T11:06:24.596Z,45.00
2018-05-26T11:08:53.668Z,44.90
2018-05-26T11:11:22.708Z,44.20
2018-05-26T11:13:51.802Z,46.00
2018-05-26T11:16:20.936Z,45.50
2018-05-26T11:18:49.897Z,43.20
2018-05-26T11:21:18.931Z,41.50
2018-05-26T11:23:48.036Z,42.20
2018-05-26T11:26:17.063Z,43.10
2018-05-26T11:28:46.907Z,42.10
2018-05-26T11:31:15.977Z,42.10
2018-05-26T11:33:45.024Z,43.10
2018-05-26T11:36:14.102Z,41.90
2018-05-26T11:38:43.169Z,41.10
2018-05-26T11:41:12.270Z,41.00
2018-05-26T11:43:42.118Z,38.30
2018-05-26T11:46:11.140Z,38.20
2018-05-26T11:48:40.181Z,39.30
2018-05-26T11:51:09.266Z,40.10
2018-05-26T11:53:38.332Z,38.90
2018-05-26T11:56:08.148Z,38.60
2018-05-26T11:58:38.003Z,38.60
2018-05-26T12:01:07.057Z,38.50
2018-05-26T12:03:36.883Z,38.10
2018-05-26T12:06:05.916Z,38.10
2018-05-26T12:08:34.967Z,35.10
2018-05-26T12:11:04.106Z,37.30
2018-05-26T12:13:33.168Z,36.70
2018-05-26T12:16:02.832Z,36.20
2018-05-26T12:18:31.871Z,37.70
2018-05-26T12:21:00.960Z,35.90
2018-05-26T12:23:30.000Z,34.00
2018-05-26T12:25:59.069Z,34.00
2018-05-26T12:28:28.120Z,33.30
2018-05-26T12:30:57.197Z,32.50
2018-05-26T12:33:26.274Z,32.40
2018-05-26T12:35:55.329Z,31.90
2018-05-26T12:38:24.444Z,31.10
2018-05-26T12:40:53.481Z,31.30
2018-05-26T12:43:22.604Z,30.40
2018-05-26T12:45:52.573Z,30.40
2018-05-26T12:48:21.621Z,30.40
2018-05-26T12:50:50.696Z,32.10
2018-05-26T12:53:19.791Z,30.80
2018-05-26T12:55:49.600Z,29.90
2018-05-26T12:58:18.629Z,29.80
2018-05-26T13:00:47.765Z,31.10
2018-05-26T13:03:16.800Z,30.00
2018-05-26T13:05:45.891Z,30.20
2018-05-26T13:08:15.846Z,30.00
2018-05-26T13:10:45.005Z,29.40
2018-05-26T13:13:14.805Z,29.70
2018-05-26T13:15:44.677Z,29.80
2018-05-26T13:18:13.712Z,29.70
2018-05-26T13:20:43.524Z,27.80
2018-05-26T13:23:13.416Z,27.60
2018-05-26T13:25:42.476Z,27.50
2018-05-26T13:28:11.503Z,27.70
2018-05-26T13:30:40.595Z,27.80
2018-05-26T13:33:09.632Z,27.70
2018-05-26T13:35:38.673Z,26.50
2018-05-26T13:38:07.777Z,26.80
2018-05-26T13:40:36.814Z,27.10
2018-05-26T13:43:06.628Z,29.10
2018-05-26T13:45:35.800Z,29.10
2018-05-26T13:48:05.660Z,32.70
2018-05-26T13:50:34.756Z,32.40
2018-05-26T13:53:04.603Z,37.80
2018-05-26T13:55:33.621Z,37.80
2018-05-26T13:58:03.463Z,42.60
2018-05-26T14:00:32.509Z,42.10
2018-05-26T14:03:01.544Z,43.70
2018-05-26T14:05:30.726Z,44.90
2018-05-26T14:08:00.536Z,45.90
2018-05-26T14:10:30.371Z,46.60
2018-05-26T14:12:59.491Z,46.50
2018-05-26T14:15:28.545Z,47.00
2018-05-26T14:17:58.432Z,48.70
2018-05-26T14:20:27.521Z,48.70
2018-05-26T14:22:56.571Z,48.30
2018-05-26T14:25:25.629Z,49.20
2018-05-26T14:27:55.464Z,46.30
2018-05-26T14:30:24.495Z,46.30
2018-05-26T14:32:53.549Z,46.00
2018-05-26T14:35:22.584Z,44.20
2018-05-26T14:37:51.680Z,44.50
2018-05-26T14:40:20.728Z,43.40
2018-05-26T14:42:49.785Z,42.40
2018-05-26T14:45:18.879Z,41.80
2018-05-26T14:47:47.946Z,38.50
2018-05-26T14:50:16.981Z,38.40
2018-05-26T14:52:46.059Z,36.80
2018-05-26T14:55:15.124Z,36.00
2018-05-26T14:57:44.185Z,35.70
2018-05-26T15:00:14.021Z,33.00
2018-05-26T15:02:43.785Z,33.00
2018-05-26T15:05:12.849Z,31.60
2018-05-26T15:07:41.943Z,33.00
2018-05-26T15:10:11.019Z,32.30
2018-05-26T15:12:40.155Z,29.50
2018-05-26T15:15:09.906Z,30.20
2018-05-26T15:17:38.988Z,30.20
2018-05-26T15:20:08.801Z,28.70
2018-05-26T15:22:38.685Z,28.00
2018-05-26T15:25:07.700Z,27.90
2018-05-26T15:27:36.773Z,27.60
2018-05-26T15:30:05.861Z,26.90
2018-05-26T15:32:35.692Z,26.50
2018-05-26T15:35:04.747Z,26.50
2018-05-26T15:37:33.805Z,26.00
2018-05-26T15:40:03.642Z,25.60
2018-05-26T15:42:32.682Z,25.60
2018-05-26T15:45:01.772Z,26.50
2018-05-26T15:47:30.810Z,26.60
2018-05-26T15:49:59.887Z,26.70
2018-05-26T15:52:29.724Z,25.10
2018-05-26T15:54:58.770Z,25.10
2018-05-26T15:57:27.838Z,24.60
2018-05-26T15:59:56.901Z,24.70
2018-05-26T16:02:25.960Z,25.10
2018-05-26T16:04:55.037Z,25.20
2018-05-26T16:07:24.562Z,24.80
2018-05-26T16:09:53.645Z,24.90
2018-05-26T16:12:22.685Z,25.50
2018-05-26T16:14:51.736Z,25.50
2018-05-26T16:17:20.858Z,25.30
2018-05-26T16:19:49.897Z,25.60
2018-05-26T16:22:18.963Z,27.50
2018-05-26T16:24:48.040Z,29.20
2018-05-26T16:27:17.125Z,31.00
2018-05-26T16:29:46.197Z,33.10
2018-05-26T16:32:15.233Z,35.90
2018-05-26T16:34:45.059Z,38.50
2018-05-26T16:37:14.130Z,38.50
2018-05-26T16:39:43.947Z,36.60
2018-05-26T16:42:13.773Z,34.50
2018-05-26T16:44:43.583Z,33.10
2018-05-26T16:47:13.430Z,31.20
2018-05-26T16:49:42.488Z,31.10
2018-05-26T16:52:12.330Z,30.40
2018-05-26T16:54:41.400Z,30.40
2018-05-26T16:57:10.450Z,30.70
2018-05-26T16:59:39.512Z,30.80
2018-05-26T17:02:08.585Z,31.60
2018-05-26T17:04:38.410Z,33.10
2018-05-26T17:07:07.458Z,33.10
2018-05-26T17:09:36.553Z,34.20
2018-05-26T17:12:05.628Z,35.70
2018-05-26T17:14:35.467Z,38.30
2018-05-26T17:17:04.551Z,38.20
2018-05-26T17:19:33.580Z,40.40
2018-05-26T17:22:02.647Z,42.70
2018-05-26T17:24:31.716Z,43.00
2018-05-26T17:27:00.768Z,44.70
2018-05-26T17:29:29.805Z,46.10
2018-05-26T17:31:58.895Z,47.20
2018-05-26T17:34:27.948Z,49.00
2018-05-26T17:36:57.009Z,50.30
2018-05-26T17:39:26.083Z,50.90
2018-05-26T17:41:55.135Z,51.70
2018-05-26T17:44:24.186Z,52.80
2018-05-26T17:46:53.260Z,53.80
2018-05-26T17:49:22.304Z,55.00
2018-05-26T17:51:52.163Z,57.10
2018-05-26T17:54:21.208Z,57.10
2018-05-26T17:56:51.049Z,58.20
2018-05-26T17:59:20.106Z,58.20
2018-05-26T18:01:49.181Z,59.00
2018-05-26T18:04:18.233Z,59.50
2018-05-26T18:06:47.363Z,59.90
2018-05-26T18:09:16.441Z,61.10
2018-05-26T18:11:45.530Z,61.60
2018-05-26T18:14:14.592Z,62.90
2018-05-26T18:16:43.638Z,63.20
2018-05-26T18:19:12.737Z,63.90
2018-05-26T18:21:41.780Z,64.50
2018-05-26T18:24:11.633Z,64.90
2018-05-26T18:26:40.680Z,64.80
2018-05-26T18:29:10.905Z,66.50
2018-05-26T18:31:40.720Z,66.80
2018-05-26T18:34:09.838Z,66.80
2018-05-26T18:36:38.879Z,67.70
2018-05-26T18:39:08.029Z,68.10
2018-05-26T18:41:37.817Z,68.40
2018-05-26T18:44:06.897Z,68.40
2018-05-26T18:46:36.724Z,69.30
2018-05-26T18:49:05.815Z,69.30
2018-05-26T18:51:35.636Z,70.30
2018-05-26T18:54:05.061Z,70.20
2018-05-26T18:56:34.152Z,70.70
2018-05-26T18:59:03.202Z,71.10
2018-05-26T19:01:32.269Z,71.50
2018-05-26T19:04:01.348Z,71.80
2018-05-26T19:06:30.498Z,72.60
2018-05-26T19:08:59.566Z,72.80
2018-05-26T19:11:28.648Z,73.10
2018-05-26T19:13:57.703Z,73.10
2018-05-26T19:16:26.764Z,73.70
2018-05-26T19:18:55.866Z,74.30
2018-05-26T19:21:24.912Z,74.30
2018-05-26T19:23:53.974Z,73.40
2018-05-26T19:26:23.057Z,74.80
2018-05-26T19:28:52.887Z,74.50
2018-05-26T19:31:21.953Z,74.50
2018-05-26T19:33:50.997Z,75.30
2018-05-26T19:36:20.068Z,76.10
2018-05-26T19:38:49.165Z,76.30
2018-05-26T19:41:18.244Z,75.80
2018-05-26T19:43:48.065Z,75.90
2018-05-26T19:46:17.150Z,75.90
2018-05-26T19:48:46.990Z,76.50
2018-05-26T19:51:16.049Z,76.50
2018-05-26T19:53:45.887Z,75.80
2018-05-26T19:56:14.981Z,75.80
2018-05-26T19:58:44.074Z,75.80
2018-05-26T20:01:13.897Z,76.80
2018-05-26T20:03:42.972Z,76.80
2018-05-26T20:06:12.492Z,77.30
2018-05-26T20:08:41.552Z,77.80
2018-05-26T20:11:10.633Z,78.20
2018-05-26T20:13:39.743Z,77.90
2018-05-26T20:16:08.759Z,78.70
2018-05-26T20:18:38.624Z,78.90
2018-05-26T20:21:07.694Z,78.90
2018-05-26T20:23:36.770Z,78.90
2018-05-26T20:26:05.839Z,79.30
2018-05-26T20:28:34.909Z,79.30
2018-05-26T20:31:03.981Z,79.20
2018-05-26T20:33:33.032Z,79.30
2018-05-26T20:36:02.881Z,80.00
2018-05-26T20:38:31.933Z,80.00
2018-05-26T20:41:01.777Z,80.70
2018-05-26T20:43:30.831Z,80.70
2018-05-26T20:45:59.914Z,80.90
2018-05-26T20:48:28.983Z,80.90
2018-05-26T20:50:58.022Z,81.00
2018-05-26T20:53:27.869Z,81.20
2018-05-26T20:55:56.908Z,81.10
2018-05-26T20:58:25.979Z,81.60
2018-05-26T21:00:55.060Z,81.80
2018-05-26T21:03:24.138Z,82.10
2018-05-26T21:05:53.283Z,82.30
2018-05-26T21:08:22.283Z,82.70
2018-05-26T21:10:51.363Z,81.80
2018-05-26T21:13:20.417Z,82.00
2018-05-26T21:15:49.490Z,82.80
2018-05-26T21:18:19.326Z,82.70
2018-05-26T21:20:48.415Z,82.70
2018-05-26T21:23:17.474Z,82.90
2018-05-26T21:25:46.556Z,82.90
2018-05-26T21:28:15.624Z,83.00
2018-05-26T21:30:44.708Z,83.00
2018-05-26T21:33:13.785Z,82.90
2018-05-26T21:35:42.850Z,83.00
2018-05-26T21:38:11.955Z,82.90
2018-05-26T21:40:41.001Z,83.00
2018-05-26T21:43:10.154Z,83.40
2018-05-26T21:45:39.213Z,83.50
2018-05-26T21:48:08.284Z,83.70
2018-05-26T21:50:37.340Z,83.40
2018-05-26T21:53:07.172Z,83.70
2018-05-26T21:55:36.216Z,83.70
2018-05-26T21:58:05.293Z,83.70
2018-05-26T22:00:34.358Z,84.00
2018-05-26T22:03:03.425Z,84.20
2018-05-26T22:05:33.234Z,84.80
2018-05-26T22:08:03.091Z,85.10
2018-05-26T22:10:32.162Z,85.00
2018-05-26T22:13:01.230Z,85.10
2018-05-26T22:15:30.312Z,85.10
2018-05-26T22:17:59.392Z,85.20
2018-05-26T22:20:28.471Z,85.20
2018-05-26T22:22:58.208Z,85.20
2018-05-26T22:25:27.292Z,85.30
2018-05-26T22:27:56.355Z,85.60
2018-05-26T22:30:25.438Z,86.10
2018-05-26T22:32:54.490Z,86.40
2018-05-26T22:35:23.563Z,86.60
2018-05-26T22:37:52.651Z,86.60
2018-05-26T22:40:21.688Z,86.60
2018-05-26T22:42:51.538Z,86.70
2018-05-26T22:45:20.620Z,86.60
2018-05-26T22:47:49.666Z,86.50
2018-05-26T22:50:18.764Z,86.00
2018-05-26T22:52:47.808Z,86.10
2018-05-26T22:55:16.886Z,86.20
2018-05-26T22:57:46.638Z,86.20
2018-05-26T23:00:15.725Z,86.20
2018-05-26T23:02:44.768Z,86.70
2018-05-26T23:05:13.862Z,86.60
2018-05-26T23:07:42.915Z,86.80
2018-05-26T23:10:12.009Z,87.10
2018-05-26T23:12:41.079Z,87.30
2018-05-26T23:15:10.184Z,87.60
2018-05-26T23:17:39.252Z,87.80
2018-05-26T23:20:08.314Z,88.20
2018-05-26T23:22:37.381Z,88.40
2018-05-26T23:25:06.455Z,88.80
2018-05-26T23:27:35.545Z,88.90
2018-05-26T23:30:04.623Z,88.80
2018-05-26T23:32:34.451Z,88.30
2018-05-26T23:35:03.542Z,88.20
2018-05-26T23:37:33.348Z,88.60
2018-05-26T23:40:03.205Z,88.50
2018-05-26T23:42:32.263Z,88.60
2018-05-26T23:45:01.314Z,88.70
2018-05-26T23:47:30.395Z,88.60
2018-05-26T23:49:59.453Z,88.70
2018-05-26T23:52:28.521Z,88.70
2018-05-26T23:54:57.580Z,88.60
2018-05-26T23:57:26.657Z,88.70
2018-05-26T23:59:55.749Z,88.80
